Time;durP1;ratioP1;P1;durP2;ratioP2;P2;SDS_P1;SDS_P2;PMS_P1;PMS_P2;Temp;Humidity;BMP_temperature;BMP_pressure;BME280_temperature;BME280_humidity;BME280_pressure;Samples;Min_cycle;Max_cycle;Signal;HPM_P1;HPM_P2
2022/04/14 00:00:38;;;;;;;0.50;0.50;;;;;;;;;;4942562;29;20042;-80
2022/04/14 00:03:04;;;;;;;0.10;0.10;;;;;;;;;;4943826;29;20067;-81
2022/04/14 00:05:30;;;;;;;0.27;0.27;;;;;;;;;;4944859;29;20109;-81
2022/04/14 00:07:56;;;;;;;0.28;0.28;;;;;;;;;;4943978;28;20039;-81
2022/04/14 00:10:22;;;;;;;0.77;0.65;;;;;;;;;;4944214;29;20049;-81
2022/04/14 00:12:49;;;;;;;0.50;0.50;;;;;;;;;;4942678;28;20488;-81
2022/04/14 00:15:15;;;;;;;0.00;0.00;;;;;;;;;;4941094;29;20046;-80
2022/04/14 00:17:41;;;;;;;0.20;0.20;;;;;;;;;;4943612;28;20675;-81
2022/04/14 00:20:09;;;;;;;0.40;0.40;;;;;;;;;;4944829;29;20113;-80
2022/04/14 00:22:35;;;;;;;0.10;0.10;;;;;;;;;;4942568;29;20042;-80
2022/04/14 00:25:02;;;;;;;0.40;0.40;;;;;;;;;;4942753;28;20066;-81
2022/04/14 00:27:28;;;;;;;0.00;0.00;;;;;;;;;;4940907;29;20043;-81
2022/04/14 00:29:54;;;;;;;0.00;0.00;;;;;;;;;;4943475;29;20047;-81
2022/04/14 00:32:20;;;;;;;0.10;0.10;;;;;;;;;;4944242;28;20559;-81
2022/04/14 00:34:46;;;;;;;0.08;0.08;;;;;;;;;;4942806;28;20580;-81
2022/04/14 00:37:13;;;;;;;0.47;0.47;;;;;;;;;;4941985;28;20035;-81
2022/04/14 00:39:39;;;;;;;0.75;0.75;;;;;;;;;;4941652;28;20033;-80
2022/04/14 00:42:09;;;;;;;3.42;0.98;;;;;;;;;;4943502;28;20118;-81
2022/04/14 00:44:35;;;;;;;0.10;0.10;;;;;;;;;;4943612;29;20035;-81
2022/04/14 00:47:01;;;;;;;0.10;0.10;;;;;;;;;;4943909;28;20516;-81
2022/04/14 00:49:27;;;;;;;0.30;0.30;;;;;;;;;;4943020;29;20050;-81
2022/04/14 00:51:53;;;;;;;0.28;0.28;;;;;;;;;;4942894;28;20035;-80
2022/04/14 00:54:19;;;;;;;0.10;0.10;;;;;;;;;;4941898;29;20035;-81
2022/04/14 00:56:45;;;;;;;0.43;0.43;;;;;;;;;;4942368;28;20086;-81
2022/04/14 00:59:11;;;;;;;0.20;0.20;;;;;;;;;;4942857;29;20043;-81
2022/04/14 01:01:37;;;;;;;0.27;0.27;;;;;;;;;;4943855;28;20035;-81
2022/04/14 01:04:04;;;;;;;0.77;0.77;;;;;;;;;;4943073;28;20499;-81
2022/04/14 01:06:30;;;;;;;0.20;0.20;;;;;;;;;;4943345;28;20023;-80
2022/04/14 01:11:41;;;;;;;0.30;0.30;;;;;;;;;;4940951;29;20576;-81
2022/04/14 01:14:07;;;;;;;0.35;0.35;;;;;;;;;;4939498;29;20500;-81
2022/04/14 01:16:34;;;;;;;0.63;0.63;;;;;;;;;;4940568;29;20576;-81
2022/04/14 01:19:00;;;;;;;0.00;0.00;;;;;;;;;;4941591;29;20678;-81
2022/04/14 01:21:33;;;;;;;0.20;0.20;;;;;;;;;;4943065;29;20042;-81
2022/04/14 01:23:59;;;;;;;0.20;0.20;;;;;;;;;;4941742;29;20071;-81
2022/04/14 01:26:25;;;;;;;0.10;0.10;;;;;;;;;;4942223;29;20061;-81
2022/04/14 01:28:51;;;;;;;0.70;0.70;;;;;;;;;;4942219;28;20058;-81
2022/04/14 01:31:17;;;;;;;0.15;0.15;;;;;;;;;;4942319;29;20031;-81
2022/04/14 01:33:43;;;;;;;0.55;0.55;;;;;;;;;;4941441;29;20042;-81
2022/04/14 01:36:09;;;;;;;0.13;0.13;;;;;;;;;;4941274;29;20028;-80
2022/04/14 01:38:36;;;;;;;0.10;0.10;;;;;;;;;;4942942;28;20110;-81
2022/04/14 01:41:02;;;;;;;0.00;0.00;;;;;;;;;;4942980;29;20118;-81
2022/04/14 01:43:28;;;;;;;0.55;0.55;;;;;;;;;;4943511;28;20118;-80
2022/04/14 01:45:54;;;;;;;0.30;0.30;;;;;;;;;;4945967;28;20702;-81
2022/04/14 01:48:20;;;;;;;0.17;0.17;;;;;;;;;;4944561;29;20030;-81
2022/04/14 01:50:46;;;;;;;0.70;0.65;;;;;;;;;;4947571;29;20066;-81
2022/04/14 01:53:12;;;;;;;0.10;0.10;;;;;;;;;;4947226;29;20059;-81
2022/04/14 01:55:38;;;;;;;0.10;0.10;;;;;;;;;;4944898;29;20478;-80
2022/04/14 01:58:05;;;;;;;0.85;0.85;;;;;;;;;;4945083;28;20504;-80
2022/04/14 02:00:31;;;;;;;0.08;0.08;;;;;;;;;;4947075;29;20034;-80
2022/04/14 02:02:57;;;;;;;6.22;0.95;;;;;;;;;;4946880;29;20421;-81
2022/04/14 02:05:23;;;;;;;0.50;0.50;;;;;;;;;;4948073;29;20126;-81
2022/04/14 02:07:49;;;;;;;0.05;0.05;;;;;;;;;;4947101;29;20051;-81
2022/04/14 02:10:15;;;;;;;0.05;0.05;;;;;;;;;;4945714;29;20047;-81
2022/04/14 02:12:41;;;;;;;0.13;0.13;;;;;;;;;;4945052;28;20038;-82
2022/04/14 02:15:07;;;;;;;1.57;1.47;;;;;;;;;;4945469;29;20497;-80
2022/04/14 02:17:33;;;;;;;1.30;0.73;;;;;;;;;;4946925;28;20047;-80
2022/04/14 02:19:59;;;;;;;0.17;0.17;;;;;;;;;;4944685;28;20287;-81
2022/04/14 02:22:25;;;;;;;0.80;0.43;;;;;;;;;;4943581;29;20038;-81
2022/04/14 02:24:51;;;;;;;0.00;0.00;;;;;;;;;;4946617;29;20031;-81
2022/04/14 02:27:17;;;;;;;2.63;0.80;;;;;;;;;;4943064;29;20035;-82
2022/04/14 02:29:43;;;;;;;0.20;0.20;;;;;;;;;;4945435;29;20054;-81
2022/04/14 02:32:09;;;;;;;0.00;0.00;;;;;;;;;;4945563;29;20840;-81
2022/04/14 02:34:35;;;;;;;0.67;0.67;;;;;;;;;;4943895;28;20551;-81
2022/04/14 02:37:01;;;;;;;0.00;0.00;;;;;;;;;;4947407;28;20715;-81
2022/04/14 02:39:27;;;;;;;0.38;0.38;;;;;;;;;;4944218;29;20035;-81
2022/04/14 02:41:53;;;;;;;0.53;0.20;;;;;;;;;;4945922;29;20039;-81
2022/04/14 02:44:19;;;;;;;0.20;0.20;;;;;;;;;;4947525;29;20098;-81
2022/04/14 02:46:46;;;;;;;1.30;0.67;;;;;;;;;;4943756;28;20034;-81
2022/04/14 02:49:12;;;;;;;0.45;0.43;;;;;;;;;;4944342;28;20042;-82
2022/04/14 02:51:38;;;;;;;1.73;0.27;;;;;;;;;;4943790;29;20063;-83
2022/04/14 02:54:04;;;;;;;0.10;0.10;;;;;;;;;;4943349;29;20047;-81
2022/04/14 02:56:30;;;;;;;0.00;0.00;;;;;;;;;;4945858;28;20133;-82
2022/04/14 02:58:56;;;;;;;0.10;0.10;;;;;;;;;;4945083;28;20584;-82
2022/04/14 03:01:22;;;;;;;0.00;0.00;;;;;;;;;;4943971;28;20058;-81
2022/04/14 03:03:48;;;;;;;6.72;1.70;;;;;;;;;;4945895;28;20063;-82
2022/04/14 03:06:14;;;;;;;0.25;0.25;;;;;;;;;;4946034;29;20066;-81
2022/04/14 03:08:41;;;;;;;0.10;0.10;;;;;;;;;;4945302;29;20582;-81
2022/04/14 03:11:07;;;;;;;0.10;0.10;;;;;;;;;;4945110;29;20038;-81
2022/04/14 03:13:33;;;;;;;3.88;2.08;;;;;;;;;;4944479;28;20039;-81
2022/04/14 03:15:59;;;;;;;0.08;0.08;;;;;;;;;;4943560;29;20027;-81
2022/04/14 03:18:25;;;;;;;1.00;0.98;;;;;;;;;;4943113;29;20062;-82
2022/04/14 03:20:51;;;;;;;0.28;0.28;;;;;;;;;;4944187;29;20496;-81
2022/04/14 03:23:17;;;;;;;0.73;0.73;;;;;;;;;;4946386;29;20848;-81
2022/04/14 03:25:45;;;;;;;0.05;0.05;;;;;;;;;;4943883;28;20059;-81
2022/04/14 03:28:11;;;;;;;0.17;0.17;;;;;;;;;;4945505;28;20604;-81
2022/04/14 03:30:37;;;;;;;0.10;0.10;;;;;;;;;;4944623;29;20038;-81
2022/04/14 03:33:03;;;;;;;0.00;0.00;;;;;;;;;;4944493;29;20457;-81
2022/04/14 03:35:29;;;;;;;0.30;0.30;;;;;;;;;;4944393;29;20039;-81
2022/04/14 03:37:55;;;;;;;0.93;0.93;;;;;;;;;;4946047;29;20035;-81
2022/04/14 03:40:21;;;;;;;0.32;0.32;;;;;;;;;;4943414;28;20504;-81
2022/04/14 03:42:47;;;;;;;0.10;0.10;;;;;;;;;;4945518;29;20030;-80
2022/04/14 03:45:13;;;;;;;0.00;0.00;;;;;;;;;;4943084;29;20031;-81
2022/04/14 03:47:39;;;;;;;0.17;0.17;;;;;;;;;;4945016;29;20031;-82
2022/04/14 03:50:05;;;;;;;0.00;0.00;;;;;;;;;;4944193;29;20162;-81
2022/04/14 03:52:31;;;;;;;0.90;0.90;;;;;;;;;;4942614;28;20496;-81
2022/04/14 03:54:57;;;;;;;0.00;0.00;;;;;;;;;;4942979;29;20552;-81
2022/04/14 03:57:24;;;;;;;0.10;0.10;;;;;;;;;;4943234;29;20028;-82
2022/04/14 03:59:50;;;;;;;0.70;0.47;;;;;;;;;;4943735;28;20118;-81
2022/04/14 04:02:16;;;;;;;0.10;0.10;;;;;;;;;;4946544;29;20129;-82
2022/04/14 04:04:42;;;;;;;0.00;0.00;;;;;;;;;;4942942;29;20065;-82
2022/04/14 04:07:08;;;;;;;0.00;0.00;;;;;;;;;;4943279;28;20041;-81
2022/04/14 04:09:35;;;;;;;0.10;0.10;;;;;;;;;;4944703;29;20298;-81
2022/04/14 04:12:01;;;;;;;0.85;0.85;;;;;;;;;;4942884;28;20031;-81
2022/04/14 04:14:27;;;;;;;0.52;0.38;;;;;;;;;;4945158;29;20303;-81
2022/04/14 04:16:54;;;;;;;0.00;0.00;;;;;;;;;;4943207;29;20141;-81
2022/04/14 04:19:20;;;;;;;0.20;0.20;;;;;;;;;;4945132;28;20049;-82
2022/04/14 04:21:45;;;;;;;0.00;0.00;;;;;;;;;;4944332;29;20628;-81
2022/04/14 04:24:11;;;;;;;0.00;0.00;;;;;;;;;;4944838;29;20027;-81
2022/04/14 04:26:38;;;;;;;0.00;0.00;;;;;;;;;;4943053;29;20023;-82
2022/04/14 04:29:04;;;;;;;0.10;0.10;;;;;;;;;;4943974;29;20035;-81
2022/04/14 04:31:30;;;;;;;0.50;0.50;;;;;;;;;;4941990;29;20027;-81
2022/04/14 04:33:56;;;;;;;0.10;0.10;;;;;;;;;;4944501;29;20286;-81
2022/04/14 04:36:22;;;;;;;0.13;0.10;;;;;;;;;;4941591;29;20031;-81
2022/04/14 04:38:48;;;;;;;0.30;0.30;;;;;;;;;;4942699;28;20039;-81
2022/04/14 04:41:14;;;;;;;0.73;0.73;;;;;;;;;;4944354;29;20031;-81
2022/04/14 04:43:40;;;;;;;0.47;0.47;;;;;;;;;;4942399;29;20041;-82
2022/04/14 04:46:08;;;;;;;0.22;0.22;;;;;;;;;;4941454;28;20039;-81
2022/04/14 04:48:34;;;;;;;0.20;0.20;;;;;;;;;;4941561;29;20050;-81
2022/04/14 04:51:00;;;;;;;0.10;0.10;;;;;;;;;;4942331;29;20036;-82
2022/04/14 04:53:26;;;;;;;0.00;0.00;;;;;;;;;;4944876;29;20377;-81
2022/04/14 04:55:52;;;;;;;1.67;0.93;;;;;;;;;;4942596;29;20031;-82
2022/04/14 04:58:18;;;;;;;0.10;0.10;;;;;;;;;;4942116;29;20035;-81
2022/04/14 05:00:45;;;;;;;0.30;0.30;;;;;;;;;;4945755;28;20041;-81
2022/04/14 05:03:11;;;;;;;0.30;0.30;;;;;;;;;;4942370;29;20027;-82
2022/04/14 05:05:38;;;;;;;0.32;0.32;;;;;;;;;;4943855;28;20524;-82
2022/04/14 05:08:05;;;;;;;0.10;0.10;;;;;;;;;;4943482;29;20038;-81
2022/04/14 05:10:32;;;;;;;0.00;0.00;;;;;;;;;;4941962;28;20049;-83
2022/04/14 05:12:59;;;;;;;3.10;2.50;;;;;;;;;;4944052;28;20398;-82
2022/04/14 05:15:25;;;;;;;0.20;0.20;;;;;;;;;;4945008;28;20031;-81
2022/04/14 05:17:51;;;;;;;0.40;0.40;;;;;;;;;;4941773;29;20152;-82
2022/04/14 05:20:17;;;;;;;0.10;0.10;;;;;;;;;;4940508;29;20039;-83
2022/04/14 05:22:43;;;;;;;0.00;0.00;;;;;;;;;;4939529;29;20611;-83
2022/04/14 05:25:09;;;;;;;0.10;0.10;;;;;;;;;;4938100;29;20043;-82
2022/04/14 05:27:35;;;;;;;1.73;1.27;;;;;;;;;;4940418;29;20031;-81
2022/04/14 05:30:01;;;;;;;0.40;0.40;;;;;;;;;;4940238;29;20035;-83
2022/04/14 05:32:27;;;;;;;0.00;0.00;;;;;;;;;;4944535;29;20117;-82
2022/04/14 05:34:53;;;;;;;2.17;0.77;;;;;;;;;;4942075;29;20035;-82
2022/04/14 05:37:19;;;;;;;0.20;0.20;;;;;;;;;;4941461;29;20411;-83
2022/04/14 05:39:46;;;;;;;2.40;0.77;;;;;;;;;;4942116;28;20023;-83
2022/04/14 05:42:12;;;;;;;0.10;0.10;;;;;;;;;;4943446;28;20027;-83
2022/04/14 05:44:38;;;;;;;0.17;0.17;;;;;;;;;;4943339;29;20078;-82
2022/04/14 05:47:04;;;;;;;0.10;0.10;;;;;;;;;;4943352;29;20035;-84
2022/04/14 05:49:30;;;;;;;0.40;0.40;;;;;;;;;;4941360;29;20046;-82
2022/04/14 05:51:57;;;;;;;0.30;0.30;;;;;;;;;;4941899;29;20396;-83
2022/04/14 05:54:23;;;;;;;0.33;0.27;;;;;;;;;;4944067;29;20038;-83
2022/04/14 05:56:49;;;;;;;0.30;0.20;;;;;;;;;;4942945;29;20028;-83
2022/04/14 05:59:17;;;;;;;0.10;0.10;;;;;;;;;;4943119;29;20031;-82
2022/04/14 06:01:44;;;;;;;0.52;0.20;;;;;;;;;;4942128;29;20404;-82
2022/04/14 06:04:10;;;;;;;0.20;0.20;;;;;;;;;;4941353;29;20045;-83
2022/04/14 06:06:36;;;;;;;0.10;0.10;;;;;;;;;;4941602;29;20480;-83
2022/04/14 06:09:03;;;;;;;0.50;0.50;;;;;;;;;;4941822;29;20610;-83
2022/04/14 06:11:29;;;;;;;0.70;0.70;;;;;;;;;;4943950;29;20110;-84
2022/04/14 06:13:55;;;;;;;0.10;0.10;;;;;;;;;;4942549;29;20071;-83
2022/04/14 06:16:21;;;;;;;0.28;0.28;;;;;;;;;;4940617;29;20051;-82
2022/04/14 06:18:47;;;;;;;1.10;0.83;;;;;;;;;;4942285;28;20055;-86
2022/04/14 06:21:13;;;;;;;0.67;0.53;;;;;;;;;;4941413;29;20043;-86
2022/04/14 06:23:39;;;;;;;0.20;0.20;;;;;;;;;;4942736;29;20031;-83
2022/04/14 06:26:05;;;;;;;0.67;0.63;;;;;;;;;;4944302;28;20655;-82
2022/04/14 06:28:34;;;;;;;0.43;0.43;;;;;;;;;;4941892;28;20527;-84
2022/04/14 06:31:00;;;;;;;0.10;0.10;;;;;;;;;;4943621;28;20038;-83
2022/04/14 06:33:30;;;;;;;0.65;0.65;;;;;;;;;;4944200;29;20030;-84
2022/04/14 06:35:56;;;;;;;0.00;0.00;;;;;;;;;;4945274;28;20043;-83
2022/04/14 06:38:24;;;;;;;0.30;0.30;;;;;;;;;;4947899;29;20038;-84
2022/04/14 06:40:50;;;;;;;0.10;0.10;;;;;;;;;;4946341;29;20848;-85
2022/04/14 06:43:16;;;;;;;0.40;0.40;;;;;;;;;;4945677;29;20622;-84
2022/04/14 06:45:42;;;;;;;0.50;0.43;;;;;;;;;;4945374;29;20416;-84
2022/04/14 06:48:09;;;;;;;0.17;0.17;;;;;;;;;;4946482;28;20037;-85
2022/04/14 06:50:35;;;;;;;0.03;0.03;;;;;;;;;;4946603;28;20294;-84
2022/04/14 06:53:01;;;;;;;1.73;0.73;;;;;;;;;;4953057;28;20381;-85
2022/04/14 06:55:27;;;;;;;1.30;0.63;;;;;;;;;;4947482;28;20035;-85
2022/04/14 06:57:54;;;;;;;0.55;0.35;;;;;;;;;;4944770;29;20039;-85
2022/04/14 07:00:23;;;;;;;0.40;0.30;;;;;;;;;;4944387;29;20106;-84
2022/04/14 07:02:51;;;;;;;0.10;0.10;;;;;;;;;;4945706;29;20056;-84
2022/04/14 07:05:17;;;;;;;1.92;0.40;;;;;;;;;;4947403;29;20034;-85
2022/04/14 07:07:43;;;;;;;0.15;0.15;;;;;;;;;;4944230;29;20035;-85
2022/04/14 07:10:11;;;;;;;0.28;0.28;;;;;;;;;;4944410;29;20058;-85
2022/04/14 07:12:38;;;;;;;0.05;0.05;;;;;;;;;;4944131;28;20047;-85
2022/04/14 07:15:04;;;;;;;0.08;0.08;;;;;;;;;;4943993;28;20031;-85
2022/04/14 07:17:30;;;;;;;0.30;0.30;;;;;;;;;;4946248;29;20567;-84
2022/04/14 07:19:58;;;;;;;0.15;0.15;;;;;;;;;;4947292;28;20073;-84
2022/04/14 07:22:24;;;;;;;0.50;0.32;;;;;;;;;;4943619;28;20105;-85
2022/04/14 07:24:50;;;;;;;0.15;0.15;;;;;;;;;;4944019;29;20110;-84
2022/04/14 07:27:21;;;;;;;0.38;0.38;;;;;;;;;;4943973;29;20126;-85
2022/04/14 07:29:48;;;;;;;0.10;0.10;;;;;;;;;;4944770;29;20402;-85
2022/04/14 07:32:16;;;;;;;0.10;0.10;;;;;;;;;;4946382;29;20027;-85
2022/04/14 07:34:43;;;;;;;0.35;0.35;;;;;;;;;;4943911;29;20582;-84
2022/04/14 07:37:09;;;;;;;0.20;0.20;;;;;;;;;;4943691;29;20415;-85
2022/04/14 07:39:35;;;;;;;0.00;0.00;;;;;;;;;;4943679;29;20035;-84
2022/04/14 07:42:01;;;;;;;0.25;0.25;;;;;;;;;;4942874;28;20491;-85
2022/04/14 07:44:27;;;;;;;0.52;0.22;;;;;;;;;;4946434;29;20146;-85
2022/04/14 07:46:53;;;;;;;0.15;0.15;;;;;;;;;;4945554;29;20035;-84
2022/04/14 07:49:19;;;;;;;0.20;0.20;;;;;;;;;;4939138;29;20477;-84
2022/04/14 07:51:45;;;;;;;0.30;0.30;;;;;;;;;;4943380;29;20102;-85
2022/04/14 07:54:11;;;;;;;0.55;0.55;;;;;;;;;;4943240;29;20067;-84
2022/04/14 07:56:37;;;;;;;0.10;0.10;;;;;;;;;;4944222;29;20035;-85
2022/04/14 07:59:03;;;;;;;0.00;0.00;;;;;;;;;;4944296;28;20126;-84
2022/04/14 08:01:29;;;;;;;1.45;1.08;;;;;;;;;;4942978;29;20547;-85
2022/04/14 08:03:55;;;;;;;0.25;0.25;;;;;;;;;;4943104;28;20038;-85
2022/04/14 08:06:25;;;;;;;0.00;0.00;;;;;;;;;;4943310;29;20023;-86
2022/04/14 08:08:51;;;;;;;0.17;0.17;;;;;;;;;;4943381;29;20050;-85
2022/04/14 08:11:17;;;;;;;0.22;0.22;;;;;;;;;;4945712;29;20396;-85
2022/04/14 08:13:43;;;;;;;0.00;0.00;;;;;;;;;;4942541;29;20054;-85
2022/04/14 08:16:10;;;;;;;0.20;0.20;;;;;;;;;;4943267;29;20035;-85
2022/04/14 08:18:37;;;;;;;0.40;0.40;;;;;;;;;;4942525;29;20635;-84
2022/04/14 08:21:03;;;;;;;0.20;0.20;;;;;;;;;;4944707;29;20039;-85
2022/04/14 08:23:30;;;;;;;26.10;2.13;;;;;;;;;;4945302;29;20039;-85
2022/04/14 08:25:56;;;;;;;0.10;0.10;;;;;;;;;;4944666;29;20079;-85
2022/04/14 08:28:22;;;;;;;;;;;;;;;;;;4942936;28;20039;-84
2022/04/14 08:30:48;;;;;;;;;;;;;;;;;;4943078;28;19927;-85
2022/04/14 08:33:16;;;;;;;2.40;1.20;;;;;;;;;;4942836;29;20017;-85
2022/04/14 08:35:42;;;;;;;0.20;0.20;;;;;;;;;;4944342;29;20035;-86
2022/04/14 08:38:08;;;;;;;1.55;0.40;;;;;;;;;;4944219;29;20227;-85
2022/04/14 08:40:35;;;;;;;0.03;0.03;;;;;;;;;;4942800;29;20110;-85
2022/04/14 08:43:05;;;;;;;0.77;0.55;;;;;;;;;;4942285;29;20458;-85
2022/04/14 08:45:35;;;;;;;0.10;0.10;;;;;;;;;;4942611;29;20031;-85
2022/04/14 08:48:02;;;;;;;0.88;0.82;;;;;;;;;;4942416;28;20091;-86
2022/04/14 08:50:29;;;;;;;0.25;0.05;;;;;;;;;;4945038;29;20161;-86
2022/04/14 08:52:56;;;;;;;0.22;0.22;;;;;;;;;;4942544;28;20532;-85
2022/04/14 08:55:22;;;;;;;0.20;0.20;;;;;;;;;;4942193;28;20042;-85
2022/04/14 08:57:48;;;;;;;0.30;0.30;;;;;;;;;;4941633;29;20039;-85
2022/04/14 09:00:19;;;;;;;0.95;0.63;;;;;;;;;;4942232;29;20067;-85
2022/04/14 09:02:46;;;;;;;0.22;0.20;;;;;;;;;;4943538;28;20037;-86
2022/04/14 09:05:12;;;;;;;;;;;;;;;;;;4945207;29;20059;-85
2022/04/14 09:07:38;;;;;;;0.85;0.20;;;;;;;;;;4942180;28;19921;-85
2022/04/14 09:10:08;;;;;;;0.08;0.08;;;;;;;;;;4942293;29;20054;-85
2022/04/14 09:12:37;;;;;;;0.05;0.05;;;;;;;;;;4941819;29;20073;-85
2022/04/14 09:15:04;;;;;;;0.10;0.10;;;;;;;;;;4942136;28;20039;-85
2022/04/14 09:17:30;;;;;;;0.10;0.10;;;;;;;;;;4944472;29;20061;-85
2022/04/14 09:19:56;;;;;;;0.20;0.20;;;;;;;;;;4942973;28;21011;-85
2022/04/14 09:22:23;;;;;;;0.03;0.03;;;;;;;;;;4941943;29;20035;-85
2022/04/14 09:24:50;;;;;;;3.13;1.00;;;;;;;;;;4942060;28;20039;-85
2022/04/14 09:27:23;;;;;;;4.97;1.60;;;;;;;;;;4941918;29;20027;-85
2022/04/14 09:29:49;;;;;;;0.75;0.47;;;;;;;;;;4942790;29;20047;-86
2022/04/14 09:32:34;;;;;;;0.10;0.10;;;;;;;;;;4944409;29;20523;-85
2022/04/14 09:35:02;;;;;;;0.10;0.10;;;;;;;;;;4944524;29;20103;-84
2022/04/14 09:37:28;;;;;;;0.20;0.20;;;;;;;;;;4943066;29;20298;-85
2022/04/14 09:39:55;;;;;;;1.50;1.20;;;;;;;;;;4941678;29;20046;-85
2022/04/14 09:42:22;;;;;;;0.10;0.00;;;;;;;;;;4941990;29;20042;-85
2022/04/14 09:44:50;;;;;;;0.25;0.25;;;;;;;;;;4943240;29;20034;-85
2022/04/14 09:47:26;;;;;;;0.10;0.10;;;;;;;;;;4944395;29;20047;-84
2022/04/14 09:49:52;;;;;;;0.00;0.00;;;;;;;;;;4943829;29;20039;-84
2022/04/14 09:52:18;;;;;;;0.47;0.47;;;;;;;;;;4941960;29;20043;-84
2022/04/14 09:54:45;;;;;;;1.75;0.63;;;;;;;;;;4940226;29;20508;-85
2022/04/14 09:57:12;;;;;;;0.35;0.35;;;;;;;;;;4941905;28;20098;-85
2022/04/14 09:59:38;;;;;;;1.80;1.13;;;;;;;;;;4944038;29;20051;-85
2022/04/14 10:02:10;;;;;;;0.00;0.00;;;;;;;;;;4943146;28;20031;-85
2022/04/14 10:04:37;;;;;;;0.05;0.05;;;;;;;;;;4941763;28;20035;-84
2022/04/14 10:07:16;;;;;;;0.22;0.10;;;;;;;;;;4947191;29;20038;-84
2022/04/14 10:09:44;;;;;;;0.00;0.00;;;;;;;;;;4945142;28;20046;-84
2022/04/14 10:12:16;;;;;;;0.00;0.00;;;;;;;;;;4945730;28;20055;-85
2022/04/14 10:14:43;;;;;;;1.15;0.57;;;;;;;;;;4947342;29;20031;-84
2022/04/14 10:17:10;;;;;;;2.03;1.20;;;;;;;;;;4946916;29;20118;-85
2022/04/14 10:19:36;;;;;;;0.10;0.10;;;;;;;;;;4944822;29;20062;-86
2022/04/14 10:22:06;;;;;;;0.13;0.13;;;;;;;;;;4944123;28;20039;-86
2022/04/14 10:24:35;;;;;;;1.65;0.60;;;;;;;;;;4945531;28;20043;-85
2022/04/14 10:27:02;;;;;;;0.22;0.22;;;;;;;;;;4947783;28;20039;-84
2022/04/14 10:29:29;;;;;;;0.00;0.00;;;;;;;;;;4947081;28;20070;-84
2022/04/14 10:31:56;;;;;;;0.70;0.30;;;;;;;;;;4944906;29;20149;-85
2022/04/14 10:34:22;;;;;;;;;;;;;;;;;;4945820;29;20020;-85
2022/04/14 10:36:49;;;;;;;0.30;0.28;;;;;;;;;;4944340;29;20492;-85
2022/04/14 10:39:15;;;;;;;0.00;0.00;;;;;;;;;;4943974;29;20416;-84
2022/04/14 10:41:45;;;;;;;0.47;0.47;;;;;;;;;;4945602;29;20031;-84
2022/04/14 10:44:13;;;;;;;0.70;0.43;;;;;;;;;;4945904;29;20641;-85
2022/04/14 10:46:41;;;;;;;0.25;0.15;;;;;;;;;;4945129;28;20039;-85
2022/04/14 10:49:11;;;;;;;0.10;0.10;;;;;;;;;;4950895;28;20064;-84
2022/04/14 10:51:38;;;;;;;0.10;0.10;;;;;;;;;;4952246;28;20199;-84
2022/04/14 10:54:04;;;;;;;0.43;0.20;;;;;;;;;;4944801;29;20564;-85
2022/04/14 10:56:42;;;;;;;0.20;0.20;;;;;;;;;;4947595;29;20023;-85
2022/04/14 10:59:12;;;;;;;0.30;0.30;;;;;;;;;;4952830;28;20039;-85
2022/04/14 11:01:47;;;;;;;0.30;0.30;;;;;;;;;;4951117;28;20055;-85
2022/04/14 11:04:26;;;;;;;0.30;0.30;;;;;;;;;;4943972;29;20039;-85
2022/04/14 11:06:53;;;;;;;0.73;0.73;;;;;;;;;;4939950;29;20051;-84
2022/04/14 11:09:38;;;;;;;0.55;0.45;;;;;;;;;;4946732;29;20408;-85
2022/04/14 11:12:04;;;;;;;0.10;0.10;;;;;;;;;;4930657;29;20035;-85
2022/04/14 11:14:34;;;;;;;0.15;0.15;;;;;;;;;;4946480;29;20584;-85
2022/04/14 11:17:00;;;;;;;0.55;0.47;;;;;;;;;;4946341;28;20106;-85
2022/04/14 11:19:27;;;;;;;0.70;0.35;;;;;;;;;;4945551;28;20059;-85
2022/04/14 11:22:00;;;;;;;0.22;0.22;;;;;;;;;;4944860;29;20420;-85
2022/04/14 11:24:39;;;;;;;0.10;0.10;;;;;;;;;;4945211;29;20031;-85
2022/04/14 11:27:19;;;;;;;0.50;0.50;;;;;;;;;;4930128;29;20043;-85
2022/04/14 11:29:46;;;;;;;0.52;0.20;;;;;;;;;;4945267;29;20024;-85
2022/04/14 11:32:15;;;;;;;0.68;0.68;;;;;;;;;;4944499;29;20716;-85
2022/04/14 11:34:42;;;;;;;3.72;1.35;;;;;;;;;;4945499;29;20102;-85
2022/04/14 11:37:27;;;;;;;1.08;0.70;;;;;;;;;;4943231;29;20257;-86
2022/04/14 11:40:11;;;;;;;7.35;0.20;;;;;;;;;;4943209;28;20015;-85
2022/04/14 11:42:37;;;;;;;4.47;0.40;;;;;;;;;;4939632;29;20035;-84
2022/04/14 11:45:03;;;;;;;0.20;0.20;;;;;;;;;;4944301;29;20045;-86
2022/04/14 11:47:30;;;;;;;0.17;0.17;;;;;;;;;;4945748;28;20042;-86
2022/04/14 11:49:56;;;;;;;0.22;0.22;;;;;;;;;;4943727;29;20058;-86
2022/04/14 11:52:22;;;;;;;0.57;0.45;;;;;;;;;;4942763;29;20031;-85
2022/04/14 11:54:49;;;;;;;0.45;0.22;;;;;;;;;;4945293;29;20134;-85
2022/04/14 11:57:19;;;;;;;0.52;0.30;;;;;;;;;;4943375;28;20035;-85
2022/04/14 11:59:46;;;;;;;0.52;0.50;;;;;;;;;;4944942;29;20039;-85
2022/04/14 12:02:14;;;;;;;4.85;1.38;;;;;;;;;;4945571;29;20028;-85
2022/04/14 12:04:40;;;;;;;1.20;0.38;;;;;;;;;;4944014;29;20063;-85
2022/04/14 12:07:08;;;;;;;0.10;0.10;;;;;;;;;;4943332;29;20059;-85
2022/04/14 12:09:34;;;;;;;0.17;0.17;;;;;;;;;;4943047;29;20126;-85
2022/04/14 12:12:00;;;;;;;;;;;;;;;;;;4943346;28;20046;-85
2022/04/14 12:14:26;;;;;;;0.13;0.13;;;;;;;;;;4946277;29;19937;-85
2022/04/14 12:16:54;;;;;;;0.15;0.15;;;;;;;;;;4943173;28;20416;-85
2022/04/14 12:19:21;;;;;;;0.20;0.20;;;;;;;;;;4942765;28;20133;-86
2022/04/14 12:21:47;;;;;;;;;;;;;;;;;;4943514;28;20612;-85
2022/04/14 12:24:13;;;;;;;0.63;0.43;;;;;;;;;;4944397;28;19914;-85
2022/04/14 12:26:40;;;;;;;0.00;0.00;;;;;;;;;;4944954;29;20035;-85
2022/04/14 12:29:09;;;;;;;0.40;0.40;;;;;;;;;;4943734;28;20131;-85
2022/04/14 12:31:35;;;;;;;0.22;0.22;;;;;;;;;;4943045;29;20130;-86
2022/04/14 12:34:01;;;;;;;0.20;0.20;;;;;;;;;;4942410;29;20119;-85
2022/04/14 12:36:35;;;;;;;0.20;0.20;;;;;;;;;;4942925;29;20027;-85
2022/04/14 12:39:03;;;;;;;0.30;0.30;;;;;;;;;;4928533;29;20391;-85
2022/04/14 12:41:33;;;;;;;0.17;0.17;;;;;;;;;;4945690;29;20108;-85
2022/04/14 12:43:59;;;;;;;0.20;0.10;;;;;;;;;;4944522;29;20038;-85
2022/04/14 12:46:25;;;;;;;0.10;0.10;;;;;;;;;;4942484;29;20408;-85
2022/04/14 12:49:01;;;;;;;0.10;0.10;;;;;;;;;;4943604;29;20062;-85
2022/04/14 12:51:29;;;;;;;0.52;0.52;;;;;;;;;;4944543;29;20039;-85
2022/04/14 12:53:55;;;;;;;0.00;0.00;;;;;;;;;;4938467;29;20038;-85
2022/04/14 12:56:21;;;;;;;13.90;1.08;;;;;;;;;;4945437;29;20027;-86
2022/04/14 12:59:05;;;;;;;1.27;0.47;;;;;;;;;;4943171;29;20035;-85
2022/04/14 13:01:44;;;;;;;0.30;0.30;;;;;;;;;;4943292;29;20039;-86
2022/04/14 13:04:10;;;;;;;0.00;0.00;;;;;;;;;;4941775;29;20742;-86
2022/04/14 13:06:36;;;;;;;;;;;;;;;;;;4944375;28;20117;-85
2022/04/14 13:09:32;;;;;;;0.03;0.03;;;;;;;;;;4956583;28;19918;-85
2022/04/14 13:11:58;;;;;;;0.10;0.10;;;;;;;;;;4922169;29;20089;-85
2022/04/14 13:14:24;;;;;;;0.22;0.22;;;;;;;;;;4945085;29;20051;-86
2022/04/14 13:16:52;;;;;;;0.00;0.00;;;;;;;;;;4942060;29;20574;-85
2022/04/14 13:19:18;;;;;;;0.28;0.28;;;;;;;;;;4941236;29;20055;-85
2022/04/14 13:21:44;;;;;;;0.10;0.10;;;;;;;;;;4943249;29;20035;-85
2022/04/14 13:24:10;;;;;;;1.17;0.43;;;;;;;;;;4941828;29;20078;-84
2022/04/14 13:26:36;;;;;;;0.10;0.10;;;;;;;;;;4944326;29;20054;-85
2022/04/14 13:29:03;;;;;;;0.43;0.32;;;;;;;;;;4942282;28;20058;-85
2022/04/14 13:31:29;;;;;;;0.20;0.20;;;;;;;;;;4941331;29;20132;-85
2022/04/14 13:33:55;;;;;;;1.30;0.75;;;;;;;;;;4941202;29;20078;-85
2022/04/14 13:36:22;;;;;;;0.20;0.20;;;;;;;;;;4941686;28;20039;-85
2022/04/14 13:38:48;;;;;;;0.00;0.00;;;;;;;;;;4941038;29;20032;-84
2022/04/14 13:41:14;;;;;;;1.70;0.68;;;;;;;;;;4946430;29;20054;-85
2022/04/14 13:43:40;;;;;;;0.40;0.22;;;;;;;;;;4945524;29;20071;-86
2022/04/14 13:46:07;;;;;;;0.10;0.10;;;;;;;;;;4945273;29;20043;-86
2022/04/14 13:48:33;;;;;;;0.55;0.35;;;;;;;;;;4946695;29;20101;-85
2022/04/14 13:50:59;;;;;;;2.08;0.73;;;;;;;;;;4945183;29;20142;-85
2022/04/14 13:53:25;;;;;;;;;;;;;;;;;;4949208;29;20775;-84
2022/04/14 13:55:51;;;;;;;0.38;0.38;;;;;;;;;;4945823;29;19921;-86
2022/04/14 13:58:19;;;;;;;1.27;0.85;;;;;;;;;;4944750;29;20057;-85
2022/04/14 14:00:46;;;;;;;0.10;0.10;;;;;;;;;;4944934;28;20035;-85
2022/04/14 14:03:12;;;;;;;0.28;0.10;;;;;;;;;;4945443;28;20028;-86
2022/04/14 14:05:38;;;;;;;0.10;0.10;;;;;;;;;;4947916;29;20067;-84
2022/04/14 14:08:05;;;;;;;0.55;0.35;;;;;;;;;;4946186;28;20079;-86
2022/04/14 14:10:31;;;;;;;;;;;;;;;;;;4945423;28;20078;-86
2022/04/14 14:12:57;;;;;;;7.82;1.65;;;;;;;;;;4945105;29;19952;-85
2022/04/14 14:15:23;;;;;;;0.55;0.55;;;;;;;;;;4944994;29;20386;-86
2022/04/14 14:17:49;;;;;;;0.30;0.30;;;;;;;;;;4946380;29;20074;-87
2022/04/14 14:20:15;;;;;;;0.00;0.00;;;;;;;;;;4947382;29;20070;-88
2022/04/14 14:22:41;;;;;;;0.05;0.05;;;;;;;;;;4944851;29;20047;-86
2022/04/14 14:25:07;;;;;;;;;;;;;;;;;;4945084;28;20094;-85
2022/04/14 14:27:34;;;;;;;0.52;0.30;;;;;;;;;;4959093;28;19918;-85
2022/04/14 14:30:01;;;;;;;0.93;0.57;;;;;;;;;;4944016;28;20464;-87
2022/04/14 14:32:27;;;;;;;0.00;0.00;;;;;;;;;;4947785;29;20020;-86
2022/04/14 14:34:53;;;;;;;0.00;0.00;;;;;;;;;;4946351;29;20791;-85
2022/04/14 14:37:19;;;;;;;1.08;0.98;;;;;;;;;;4944444;29;20041;-86
2022/04/14 14:39:45;;;;;;;0.10;0.10;;;;;;;;;;4944217;29;20066;-85
2022/04/14 14:42:11;;;;;;;0.13;0.13;;;;;;;;;;4944559;29;20114;-85
2022/04/14 14:44:38;;;;;;;0.52;0.38;;;;;;;;;;4946399;29;20039;-85
2022/04/14 14:47:04;;;;;;;;;;;;;;;;;;4946106;28;20027;-85